High Point, NC (27262)

1:55 AM EST on November 26, 2014 (GMT -0500)
Archdale Rd Surret Dr | Change Station
CLOSE
Current Station
Personal Weather Station
Location: Archdale, NC
Elevation: 873 ft
Nearby Weather Stations

Elev 873 ft 35.92 °N, 79.99 °W | Updated 13 minutes ago

Rain
Rain
45.5 °F
Feels Like 42 °F
N
5.8
Wind Variable Wind from NE

Today
High -- | Low -- °F
--% Chance of Precip.
Yesterday
High -- | Low -- °F
Precip. -- in
7:07 AM 5:07 PM
Waxing Crescent, 17% visible
Pressure 30.01 in
Visibility 6.0 miles
Clouds Mostly Cloudy 2200 ft
Overcast 6000 ft
Windchill 42 °F
Dew Point 44 °F
Humidity 94%
Rainfall 0.00 in
Snow Depth Not available.
UV 0 out of 12
Pollen 1.50 out of 12
Air Quality Not available.
Flu Activity Not available.
METAR KGSO 260554Z 01006KT 6SM -RA BR BKN022 OVC060 08/06 A3002 RMK AO2 PRESFR SLP163 P0004 60007 T00780061 10122 20078 58017

More Conditions Fewer Conditions

Pressure 30.01 in
Visibility 6.0 miles
Clouds Mostly Cloudy 2200 ft
Overcast 6000 ft
Windchill 42 °F
Dew Point 44 °F
Humidity 94%
Rainfall 0.00 in
Snow Depth Not available.
UV 0 out of 12
Pollen 1.50 out of 12
Air Quality Not available.
Flu Activity Not available.
METAR KGSO 260554Z 01006KT 6SM -RA BR BKN022 OVC060 08/06 A3002 RMK AO2 PRESFR SLP163 P0004 60007 T00780061 10122 20078 58017

More Conditions Fewer Conditions

10-Day Weather Forecast

Almanac

Astronomy

Nov. 26, 2014 Rise Set
Actual Time
Civil Twilight
Nautical Twilight
Astronomical Twilight
Moon
Length of Visible Light
Length of Day
Tomorrow will be .
, % of the Moon is Illuminated

Today's Extremes

State Highs State Lows

Community

WunderPhotos

Upload Photos

1,773,691 photos uploaded!

WunderBlogs® & News

Nearby

Air Quality

  Air Quality AQ Index Pollutant
Not available.

Snow Depth

Station Depth Elevation

Earthquake Activity

City Distance Mag. Time & Date
Minimum magnitude displayed is 2.5.

Coastal Water Temperatures

Place Temperature

Nearby Weather Stations